Albion, Nebraska
Current Conditions -  °F | °C
As of 8:15 AM on Saturday 01 Nov 2014 (Local Time) from KBVN Reporting Station
Scattered Clouds Scattered Clouds  
Wind Chill: 18°   Ceiling: Unl
Heat Index: 28°   Visibility: 10mi
Dew Point: 18°   Wind: 12mph
Humidity: 65%   Direction: 150°SSE
Pressure: 30.27"   Gusts: 20mph
Location:  41.69°N, 98°W
Report Text: KBVN 011315Z AUTO 15010G17KT 10SM SCT110 M02/M08 A3027 RMK AO2 T10201077
Loading
Personal Weather Stations






























Interactive Weather Map
Tropical Storm Tracking
New forecast layout! Learn more

10-Day Weather Forecast

Advertisements
Track Severe Weather on mobile